Time;durP1;ratioP1;P1;durP2;ratioP2;P2;SDS_P1;SDS_P2;PMS_P1;PMS_P2;Temp;Humidity;BMP_temperature;BMP_pressure;BME280_temperature;BME280_humidity;BME280_pressure;Samples;Min_cycle;Max_cycle;Signal;HPM_P1;HPM_P2
2022/07/03 00:02:28;;;;;;;;;;;18.90;99.90;;;;;;8382714;28;19931;-74
2022/07/03 00:06:31;;;;;;;;;;;18.80;99.90;;;;;;8375932;28;20339;-75
2022/07/03 00:10:33;;;;;;;;;;;18.80;99.90;;;;;;8382328;28;20386;-74
2022/07/03 00:14:35;;;;;;;;;;;18.70;99.90;;;;;;8391074;28;19924;-75
2022/07/03 00:18:37;;;;;;;;;;;18.70;99.90;;;;;;8390160;28;20320;-75
2022/07/03 00:22:42;;;;;;;;;;;18.60;99.90;;;;;;8387326;28;19927;-74
2022/07/03 00:26:44;;;;;;;;;;;18.50;99.90;;;;;;8380011;28;19933;-74
2022/07/03 00:30:47;;;;;;;;;;;18.40;99.90;;;;;;8381348;28;19935;-74
2022/07/03 00:34:52;;;;;;;;;;;18.40;99.90;;;;;;8381356;28;20359;-74
2022/07/03 00:38:54;;;;;;;;;;;18.40;99.90;;;;;;8370097;28;19987;-74
2022/07/03 00:42:59;;;;;;;;;;;18.30;99.90;;;;;;8381379;28;20331;-74
2022/07/03 00:47:02;;;;;;;;;;;18.30;99.90;;;;;;8383229;28;19924;-74
2022/07/03 00:51:05;;;;;;;;;;;18.20;99.90;;;;;;8388141;28;19931;-74
2022/07/03 00:55:08;;;;;;;;;;;18.10;99.90;;;;;;8373167;28;20338;-74
2022/07/03 00:59:09;;;;;;;;;;;18.10;99.90;;;;;;8381448;28;19931;-74
2022/07/03 01:03:14;;;;;;;;;;;18.00;99.90;;;;;;8389014;28;20019;-74
2022/07/03 01:07:36;;;;;;;;;;;17.90;99.90;;;;;;8382236;28;19931;-75
2022/07/03 01:11:42;;;;;;;;;;;17.90;99.90;;;;;;8383051;28;19931;-74
2022/07/03 01:15:47;;;;;;;;;;;17.90;99.90;;;;;;8404063;28;19972;-74
2022/07/03 01:19:50;;;;;;;;;;;17.80;99.90;;;;;;8393191;28;19928;-75
2022/07/03 01:24:10;;;;;;;;;;;17.80;99.90;;;;;;8379533;28;19928;-74
2022/07/03 01:28:15;;;;;;;;;;;17.70;99.90;;;;;;8391103;28;20333;-74
2022/07/03 01:32:18;;;;;;;;;;;17.60;99.90;;;;;;8375623;28;19928;-74
2022/07/03 01:36:21;;;;;;;;;;;17.50;99.90;;;;;;8375446;28;19920;-74
2022/07/03 01:40:23;;;;;;;;;;;17.50;99.90;;;;;;8380521;28;19921;-75
2022/07/03 01:44:26;;;;;;;;;;;17.40;99.90;;;;;;8370402;28;20299;-74
2022/07/03 01:48:29;;;;;;;;;;;17.40;99.90;;;;;;8383419;28;19924;-74
2022/07/03 01:52:31;;;;;;;;;;;17.40;99.90;;;;;;8378720;28;19921;-74
2022/07/03 01:56:48;;;;;;;;;;;17.30;99.90;;;;;;8391054;28;19927;-74
2022/07/03 02:00:56;;;;;;;;;;;17.20;99.90;;;;;;8387619;28;20371;-74
2022/07/03 02:05:09;;;;;;;;;;;17.20;99.90;;;;;;8379195;28;19927;-74
2022/07/03 02:09:11;;;;;;;;;;;17.10;99.90;;;;;;8401073;28;19920;-74
2022/07/03 02:13:28;;;;;;;;;;;17.00;99.90;;;;;;8382290;28;19924;-74
2022/07/03 02:17:35;;;;;;;;;;;17.00;99.90;;;;;;8388757;28;20316;-74
2022/07/03 02:21:46;;;;;;;;;;;16.90;99.90;;;;;;8389226;28;19967;-74
2022/07/03 02:25:50;;;;;;;;;;;16.90;99.90;;;;;;8382945;28;19927;-74
2022/07/03 02:30:07;;;;;;;;;;;16.80;99.90;;;;;;8378193;28;20168;-74
2022/07/03 02:34:12;;;;;;;;;;;16.80;99.90;;;;;;8382529;28;19920;-74
2022/07/03 02:38:17;;;;;;;;;;;16.70;99.90;;;;;;8370850;28;19927;-75
2022/07/03 02:42:28;;;;;;;;;;;16.70;99.90;;;;;;8382136;28;19983;-74
2022/07/03 02:46:49;;;;;;;;;;;16.60;99.90;;;;;;8374064;28;19946;-74
2022/07/03 02:50:55;;;;;;;;;;;16.50;99.90;;;;;;8386989;28;19931;-75
2022/07/03 02:54:59;;;;;;;;;;;16.50;99.90;;;;;;8382369;28;19942;-74
2022/07/03 02:59:07;;;;;;;;;;;16.50;99.90;;;;;;8389242;28;19924;-74
2022/07/03 03:03:08;;;;;;;;;;;16.40;99.90;;;;;;8390327;28;19920;-74
2022/07/03 03:07:14;;;;;;;;;;;16.40;99.90;;;;;;8382779;28;19924;-74
2022/07/03 03:11:19;;;;;;;;;;;16.40;99.90;;;;;;8404624;28;19920;-74
2022/07/03 03:15:24;;;;;;;;;;;16.40;99.90;;;;;;8390632;28;19924;-74
2022/07/03 03:19:26;;;;;;;;;;;16.30;99.90;;;;;;8378059;28;19924;-74
2022/07/03 03:23:45;;;;;;;;;;;16.30;99.90;;;;;;8396076;28;19931;-74
2022/07/03 03:27:47;;;;;;;;;;;16.30;99.90;;;;;;8389163;28;19921;-74
2022/07/03 03:31:48;;;;;;;;;;;16.30;99.90;;;;;;8392987;28;20382;-74
2022/07/03 03:35:50;;;;;;;;;;;16.30;99.90;;;;;;8407043;28;19924;-74
2022/07/03 03:39:51;;;;;;;;;;;16.30;99.90;;;;;;8384067;28;20394;-74
2022/07/03 03:43:53;;;;;;;;;;;16.30;99.90;;;;;;8397223;28;19928;-74
2022/07/03 03:47:55;;;;;;;;;;;16.30;99.90;;;;;;8374771;28;19931;-74
2022/07/03 03:51:57;;;;;;;;;;;16.30;99.90;;;;;;8384821;28;20283;-74
2022/07/03 03:56:06;;;;;;;;;;;16.30;99.90;;;;;;8387918;28;19991;-74
2022/07/03 04:00:08;;;;;;;;;;;16.40;99.90;;;;;;8378973;28;19932;-74
2022/07/03 04:04:12;;;;;;;;;;;16.40;99.90;;;;;;8371531;28;20398;-74
2022/07/03 04:08:13;;;;;;;;;;;16.40;99.90;;;;;;8385495;28;19947;-74
2022/07/03 04:12:15;;;;;;;;;;;16.40;99.90;;;;;;8381539;28;19932;-74
2022/07/03 04:16:17;;;;;;;;;;;16.40;99.90;;;;;;8399283;28;19920;-74
2022/07/03 04:20:19;;;;;;;;;;;16.30;99.90;;;;;;8389177;28;20350;-74
2022/07/03 04:24:20;;;;;;;;;;;16.30;99.90;;;;;;8388565;28;19924;-73
2022/07/03 04:28:22;;;;;;;;;;;16.40;99.90;;;;;;8388685;28;19920;-74
2022/07/03 04:32:24;;;;;;;;;;;16.40;99.90;;;;;;8391580;28;20023;-74
2022/07/03 04:36:26;;;;;;;;;;;16.40;99.90;;;;;;8372537;28;19927;-74
2022/07/03 04:40:27;;;;;;;;;;;16.40;99.90;;;;;;8383715;28;19984;-74
2022/07/03 04:44:29;;;;;;;;;;;16.50;99.90;;;;;;8402237;28;19921;-74
2022/07/03 04:48:31;;;;;;;;;;;16.60;99.90;;;;;;8379560;28;20371;-74
2022/07/03 04:52:33;;;;;;;;;;;16.70;99.90;;;;;;8391844;28;19925;-74
2022/07/03 04:56:35;;;;;;;;;;;16.90;99.90;;;;;;8390127;28;20322;-74
2022/07/03 05:00:36;;;;;;;;;;;17.00;99.90;;;;;;8381326;28;19920;-74
2022/07/03 05:04:44;;;;;;;;;;;17.10;99.90;;;;;;8385834;28;19928;-74
2022/07/03 05:08:45;;;;;;;;;;;17.20;99.90;;;;;;8384109;28;20402;-74
2022/07/03 05:12:47;;;;;;;;;;;17.20;99.90;;;;;;8389960;28;19924;-74
2022/07/03 05:16:49;;;;;;;;;;;17.40;99.90;;;;;;8391618;28;19943;-74
2022/07/03 05:20:51;;;;;;;;;;;17.40;99.90;;;;;;8388507;28;20031;-74
2022/07/03 05:24:52;;;;;;;;;;;17.50;99.90;;;;;;8398242;28;19928;-74
2022/07/03 05:28:54;;;;;;;;;;;17.60;99.90;;;;;;8386989;28;20292;-74
2022/07/03 05:32:56;;;;;;;;;;;17.80;99.90;;;;;;8386016;28;19924;-74
2022/07/03 05:36:57;;;;;;;;;;;17.90;99.90;;;;;;8384342;28;19924;-74
2022/07/03 05:40:59;;;;;;;;;;;17.90;99.90;;;;;;8395122;28;19924;-75
2022/07/03 05:45:01;;;;;;;;;;;17.90;99.90;;;;;;8393337;28;19977;-75
2022/07/03 05:49:02;;;;;;;;;;;17.90;99.90;;;;;;8395840;28;19935;-74
2022/07/03 05:53:04;;;;;;;;;;;17.90;99.90;;;;;;8378129;28;19935;-74
2022/07/03 05:57:08;;;;;;;;;;;17.90;99.90;;;;;;8385592;28;20426;-74
2022/07/03 06:01:10;;;;;;;;;;;17.90;99.90;;;;;;8388189;28;19939;-75
2022/07/03 06:05:11;;;;;;;;;;;18.00;99.90;;;;;;8386073;28;19942;-75
2022/07/03 06:09:13;;;;;;;;;;;18.10;99.90;;;;;;8388111;28;19924;-74
2022/07/03 06:13:17;;;;;;;;;;;18.20;99.90;;;;;;8377143;28;19936;-74
2022/07/03 06:17:19;;;;;;;;;;;18.30;99.90;;;;;;8380600;28;19935;-74
2022/07/03 06:21:20;;;;;;;;;;;18.40;99.90;;;;;;8360800;28;20399;-74
2022/07/03 06:25:25;;;;;;;;;;;18.50;99.90;;;;;;8372749;28;19928;-74
2022/07/03 06:29:27;;;;;;;;;;;18.50;99.90;;;;;;8350340;28;19991;-74
2022/07/03 06:33:29;;;;;;;;;;;18.60;99.90;;;;;;8352620;28;19982;-74
2022/07/03 06:37:30;;;;;;;;;;;18.60;99.90;;;;;;8359364;28;20042;-74
2022/07/03 06:41:32;;;;;;;;;;;18.70;99.90;;;;;;8331918;28;20024;-74
2022/07/03 06:45:34;;;;;;;;;;;18.80;99.90;;;;;;8330933;28;19982;-74
2022/07/03 06:49:35;;;;;;;;;;;18.90;99.90;;;;;;8347586;28;19928;-73
2022/07/03 06:53:37;;;;;;;;;;;19.00;99.90;;;;;;8354279;28;19988;-74
2022/07/03 06:57:39;;;;;;;;;;;19.00;99.90;;;;;;8386944;28;19924;-74
2022/07/03 07:01:40;;;;;;;;;;;19.10;99.90;;;;;;8376235;28;19925;-74
2022/07/03 07:05:42;;;;;;;;;;;19.10;99.90;;;;;;8357651;28;20320;-74
2022/07/03 07:09:44;;;;;;;;;;;19.10;99.90;;;;;;8353606;28;19929;-73
2022/07/03 07:13:46;;;;;;;;;;;19.10;99.90;;;;;;8336910;28;19928;-74
2022/07/03 07:17:48;;;;;;;;;;;19.20;99.90;;;;;;8348796;28;19932;-74
2022/07/03 07:21:49;;;;;;;;;;;19.20;99.90;;;;;;8369278;28;19928;-74
2022/07/03 07:25:51;;;;;;;;;;;19.30;99.90;;;;;;8361686;28;19932;-74
2022/07/03 07:29:53;;;;;;;;;;;19.40;99.90;;;;;;8366132;28;20601;-74
2022/07/03 07:33:54;;;;;;;;;;;19.40;99.90;;;;;;8368078;28;19925;-74
2022/07/03 07:37:56;;;;;;;;;;;19.50;99.90;;;;;;8370758;28;19928;-75
2022/07/03 07:41:58;;;;;;;;;;;19.50;99.90;;;;;;8373878;28;19932;-74
2022/07/03 07:45:59;;;;;;;;;;;19.50;99.90;;;;;;8372942;28;19924;-74
2022/07/03 07:50:01;;;;;;;;;;;19.60;99.90;;;;;;8376365;28;20032;-73
2022/07/03 07:54:03;;;;;;;;;;;19.60;99.90;;;;;;8374939;28;19925;-74
2022/07/03 07:58:04;;;;;;;;;;;19.70;99.90;;;;;;8375436;28;19929;-74
2022/07/03 08:06:26;;;;;;;;;;;19.70;99.90;;;;;;8376836;28;19929;-74
2022/07/03 08:10:28;;;;;;;;;;;19.70;99.90;;;;;;8375330;28;19925;-74
2022/07/03 08:14:32;;;;;;;;;;;19.70;99.90;;;;;;8370684;28;19928;-74
2022/07/03 08:18:33;;;;;;;;;;;19.60;99.90;;;;;;8365215;28;19929;-73
2022/07/03 08:22:35;;;;;;;;;;;19.50;99.90;;;;;;8358441;28;20031;-74
2022/07/03 08:26:37;;;;;;;;;;;19.60;99.90;;;;;;8365067;28;19929;-74
2022/07/03 08:30:38;;;;;;;;;;;19.70;99.90;;;;;;8363323;28;19925;-74
2022/07/03 08:34:40;;;;;;;;;;;19.80;99.90;;;;;;8362301;28;19925;-74
2022/07/03 08:38:42;;;;;;;;;;;20.00;99.90;;;;;;8365284;28;19963;-73
2022/07/03 08:42:49;;;;;;;;;;;20.00;99.90;;;;;;8375970;28;19928;-74
2022/07/03 08:46:51;;;;;;;;;;;20.10;99.90;;;;;;8368772;28;20039;-73
2022/07/03 08:50:53;;;;;;;;;;;20.00;99.90;;;;;;8366406;28;19974;-74
2022/07/03 08:54:54;;;;;;;;;;;20.00;99.90;;;;;;8373085;28;19939;-74
2022/07/03 08:59:01;;;;;;;;;;;20.00;99.90;;;;;;8372102;28;19928;-74
2022/07/03 09:03:04;;;;;;;;;;;20.10;99.90;;;;;;8368646;28;20422;-74
2022/07/03 09:07:07;;;;;;;;;;;20.20;99.90;;;;;;8360552;28;19933;-74
2022/07/03 09:11:09;;;;;;;;;;;20.20;99.90;;;;;;8355631;28;19925;-73
2022/07/03 09:15:11;;;;;;;;;;;20.30;99.90;;;;;;8364071;28;20307;-74
2022/07/03 09:19:12;;;;;;;;;;;20.40;99.90;;;;;;8360846;28;20311;-74
2022/07/03 09:23:15;;;;;;;;;;;20.40;99.90;;;;;;8356789;28;20299;-74
2022/07/03 09:27:18;;;;;;;;;;;20.60;99.90;;;;;;8358416;28;20370;-75
2022/07/03 09:31:20;;;;;;;;;;;20.60;99.90;;;;;;8361864;28;19924;-76
2022/07/03 09:35:23;;;;;;;;;;;20.50;99.90;;;;;;8364174;28;20299;-75
2022/07/03 09:39:37;;;;;;;;;;;20.40;99.90;;;;;;8358427;28;19924;-74
2022/07/03 09:43:43;;;;;;;;;;;20.50;99.90;;;;;;8360186;28;20276;-75
2022/07/03 09:47:44;;;;;;;;;;;20.60;99.90;;;;;;8357527;28;19928;-73
2022/07/03 09:51:53;;;;;;;;;;;20.60;99.90;;;;;;8346392;28;19971;-76
2022/07/03 09:55:59;;;;;;;;;;;20.70;99.90;;;;;;8362083;28;20407;-74
2022/07/03 10:00:20;;;;;;;;;;;20.80;99.90;;;;;;8376290;28;19924;-74
2022/07/03 10:04:22;;;;;;;;;;;20.80;99.90;;;;;;8366516;28;19975;-74
2022/07/03 10:08:24;;;;;;;;;;;20.90;99.90;;;;;;8360627;28;19994;-74
2022/07/03 10:12:26;;;;;;;;;;;21.00;99.90;;;;;;8360388;28;19933;-73
2022/07/03 10:16:27;;;;;;;;;;;21.00;99.90;;;;;;8361057;28;19932;-75
2022/07/03 10:20:30;;;;;;;;;;;21.00;99.90;;;;;;8358205;28;20284;-74
2022/07/03 10:24:32;;;;;;;;;;;21.10;99.90;;;;;;8362351;28;19933;-74
2022/07/03 10:28:34;;;;;;;;;;;21.20;99.90;;;;;;8359443;28;19940;-74
2022/07/03 10:32:37;;;;;;;;;;;21.20;99.90;;;;;;8358881;28;19925;-74
2022/07/03 10:36:39;;;;;;;;;;;21.00;99.90;;;;;;8361836;28;19939;-74
2022/07/03 10:45:13;;;;;;;;;;;21.10;99.90;;;;;;8363645;28;20366;-74
2022/07/03 10:49:15;;;;;;;;;;;21.20;99.90;;;;;;8362799;28;20683;-74
2022/07/03 10:53:21;;;;;;;;;;;21.20;99.90;;;;;;8345187;28;19932;-74
2022/07/03 10:57:23;;;;;;;;;;;21.30;99.90;;;;;;8359606;28;19932;-74
2022/07/03 11:01:26;;;;;;;;;;;21.30;99.90;;;;;;8359038;28;19936;-74
2022/07/03 11:05:36;;;;;;;;;;;21.20;99.90;;;;;;8350257;28;19928;-74
2022/07/03 11:09:38;;;;;;;;;;;21.20;99.90;;;;;;8360734;28;20004;-74
2022/07/03 11:13:59;;;;;;;;;;;21.10;99.90;;;;;;8369209;28;19936;-74
2022/07/03 11:18:07;;;;;;;;;;;21.00;99.90;;;;;;8367104;28;19924;-73
2022/07/03 11:22:12;;;;;;;;;;;20.90;99.90;;;;;;8373327;28;19932;-73
2022/07/03 11:26:14;;;;;;;;;;;20.80;99.90;;;;;;8354598;28;20411;-74
2022/07/03 11:30:15;;;;;;;;;;;20.70;99.90;;;;;;8365265;28;20283;-73
2022/07/03 11:34:21;;;;;;;;;;;20.70;99.90;;;;;;8349611;28;20313;-73
2022/07/03 11:38:24;;;;;;;;;;;20.70;99.90;;;;;;8367604;28;20006;-73
2022/07/03 11:42:32;;;;;;;;;;;20.80;99.90;;;;;;8366309;28;19925;-74
2022/07/03 11:46:36;;;;;;;;;;;20.80;99.90;;;;;;8367489;28;20031;-74
2022/07/03 11:50:41;;;;;;;;;;;20.90;99.90;;;;;;8365244;28;19925;-74
2022/07/03 11:54:50;;;;;;;;;;;20.90;99.90;;;;;;8365293;28;19932;-74
2022/07/03 11:58:53;;;;;;;;;;;21.00;99.90;;;;;;8364026;28;19931;-74
2022/07/03 12:02:54;;;;;;;;;;;21.10;99.90;;;;;;8364370;28;19935;-74
2022/07/03 12:06:56;;;;;;;;;;;21.20;99.90;;;;;;8361910;28;19928;-73
2022/07/03 12:11:00;;;;;;;;;;;21.40;99.90;;;;;;8363164;28;19932;-74
2022/07/03 12:15:02;;;;;;;;;;;21.50;99.90;;;;;;8365460;28;20439;-73
2022/07/03 12:19:05;;;;;;;;;;;21.50;99.90;;;;;;8367579;28;19935;-73
2022/07/03 12:23:07;;;;;;;;;;;21.60;99.90;;;;;;8362800;28;21916;-74
2022/07/03 12:27:09;;;;;;;;;;;21.50;99.90;;;;;;8348707;28;20027;-73
2022/07/03 12:31:10;;;;;;;;;;;21.50;99.90;;;;;;8354514;28;19940;-74
2022/07/03 12:35:12;;;;;;;;;;;21.40;99.90;;;;;;8365548;28;19925;-74
2022/07/03 12:39:14;;;;;;;;;;;21.30;99.90;;;;;;8366527;28;20295;-74
2022/07/03 12:43:16;;;;;;;;;;;21.30;99.90;;;;;;8360762;28;19925;-74
2022/07/03 12:47:18;;;;;;;;;;;21.30;99.90;;;;;;8360366;28;20157;-74
2022/07/03 12:51:38;;;;;;;;;;;21.40;99.90;;;;;;8361340;28;19925;-74
2022/07/03 12:55:44;;;;;;;;;;;21.40;99.90;;;;;;8362957;28;19931;-74
2022/07/03 13:00:00;;;;;;;;;;;21.20;99.90;;;;;;8365830;28;20012;-74
2022/07/03 13:04:01;;;;;;;;;;;21.10;99.90;;;;;;8361575;28;19929;-74
2022/07/03 13:08:05;;;;;;;;;;;21.00;99.90;;;;;;8369305;28;19924;-74
2022/07/03 13:12:07;;;;;;;;;;;20.90;99.90;;;;;;8357783;28;19929;-75
2022/07/03 13:16:28;;;;;;;;;;;20.90;99.90;;;;;;8372641;28;19924;-75
2022/07/03 13:20:33;;;;;;;;;;;21.00;99.90;;;;;;8368449;28;19924;-75
2022/07/03 13:24:35;;;;;;;;;;;21.20;99.90;;;;;;8368887;28;19940;-73
2022/07/03 13:28:36;;;;;;;;;;;21.10;99.90;;;;;;8360053;28;19928;-73
2022/07/03 13:32:38;;;;;;;;;;;21.10;99.90;;;;;;8351652;28;19929;-75
2022/07/03 13:36:40;;;;;;;;;;;21.10;99.90;;;;;;8356112;28;19932;-73
2022/07/03 13:40:41;;;;;;;;;;;21.00;99.90;;;;;;8356057;28;19925;-73
2022/07/03 13:44:43;;;;;;;;;;;21.00;99.90;;;;;;8372046;28;20269;-74
2022/07/03 13:48:45;;;;;;;;;;;21.00;99.90;;;;;;8359208;28;20257;-74
2022/07/03 13:52:47;;;;;;;;;;;20.80;99.90;;;;;;8356067;28;20004;-74
2022/07/03 13:56:51;;;;;;;;;;;20.70;99.90;;;;;;8360111;28;19936;-74
2022/07/03 14:00:53;;;;;;;;;;;20.70;99.90;;;;;;8362786;28;19932;-74
2022/07/03 14:04:54;;;;;;;;;;;20.80;99.90;;;;;;8348329;28;20384;-75
2022/07/03 14:08:59;;;;;;;;;;;20.90;99.90;;;;;;8357868;28;20336;-74
2022/07/03 14:13:01;;;;;;;;;;;21.00;99.90;;;;;;8357909;28;20276;-73
2022/07/03 14:17:03;;;;;;;;;;;21.00;99.90;;;;;;8361269;28;19929;-74
2022/07/03 14:21:05;;;;;;;;;;;21.00;99.90;;;;;;8363120;28;19928;-73
2022/07/03 14:25:09;;;;;;;;;;;21.00;99.90;;;;;;8361608;28;21510;-75
2022/07/03 14:33:31;;;;;;;;;;;21.00;99.90;;;;;;8361949;28;19932;-74
2022/07/03 14:37:33;;;;;;;;;;;21.00;99.90;;;;;;8357413;28;19932;-75
2022/07/03 14:41:35;;;;;;;;;;;21.10;99.90;;;;;;8368836;28;19929;-74
2022/07/03 14:45:46;;;;;;;;;;;21.20;99.90;;;;;;8379539;28;19928;-73
2022/07/03 14:49:48;;;;;;;;;;;21.30;99.90;;;;;;8369279;28;19924;-73
2022/07/03 14:53:50;;;;;;;;;;;21.30;99.90;;;;;;8379171;28;19925;-74
2022/07/03 14:58:03;;;;;;;;;;;21.30;99.90;;;;;;8368205;28;19928;-73
2022/07/03 15:02:06;;;;;;;;;;;21.20;99.90;;;;;;8375374;28;19940;-74
2022/07/03 15:06:08;;;;;;;;;;;21.10;99.90;;;;;;8367683;28;19937;-74
2022/07/03 15:10:11;;;;;;;;;;;21.00;99.90;;;;;;8377698;28;19928;-74
2022/07/03 15:14:13;;;;;;;;;;;21.00;99.90;;;;;;8372959;28;20352;-74
2022/07/03 15:18:18;;;;;;;;;;;21.00;99.90;;;;;;8356415;28;19925;-73
2022/07/03 15:22:20;;;;;;;;;;;21.10;99.90;;;;;;8375922;28;19920;-74
2022/07/03 15:26:22;;;;;;;;;;;21.10;99.90;;;;;;8370011;28;19924;-74
2022/07/03 15:30:24;;;;;;;;;;;21.20;99.90;;;;;;8373114;28;19924;-74
2022/07/03 15:34:26;;;;;;;;;;;21.10;99.90;;;;;;8361888;28;19920;-73
2022/07/03 15:38:35;;;;;;;;;;;21.00;99.90;;;;;;8343392;28;20276;-74
2022/07/03 15:42:48;;;;;;;;;;;20.90;99.90;;;;;;8356557;28;19939;-74
2022/07/03 15:47:03;;;;;;;;;;;21.00;99.90;;;;;;8357828;28;19928;-74
2022/07/03 15:51:12;;;;;;;;;;;21.00;99.90;;;;;;8357974;28;19971;-75
2022/07/03 15:55:14;;;;;;;;;;;21.00;99.90;;;;;;8372574;28;19928;-74
2022/07/03 15:59:16;;;;;;;;;;;21.30;99.90;;;;;;8351398;28;20398;-74
2022/07/03 16:03:18;;;;;;;;;;;21.40;99.90;;;;;;8363910;28;19929;-74
2022/07/03 16:07:20;;;;;;;;;;;21.70;99.90;;;;;;8368390;28;19927;-74
2022/07/03 16:11:21;;;;;;;;;;;21.80;99.90;;;;;;8361329;28;19931;-75
2022/07/03 16:15:24;;;;;;;;;;;21.70;99.90;;;;;;8379054;28;19920;-74
2022/07/03 16:19:26;;;;;;;;;;;21.90;99.90;;;;;;8356071;28;19947;-75
2022/07/03 16:23:28;;;;;;;;;;;22.40;99.90;;;;;;8361458;28;19925;-75
2022/07/03 16:27:30;;;;;;;;;;;22.40;99.90;;;;;;8356901;28;19927;-74
2022/07/03 16:31:35;;;;;;;;;;;22.10;99.90;;;;;;8358409;28;19928;-74
2022/07/03 16:35:37;;;;;;;;;;;21.80;99.90;;;;;;8355964;28;19928;-75
2022/07/03 16:39:40;;;;;;;;;;;22.00;99.90;;;;;;8361782;28;19928;-74
2022/07/03 16:43:43;;;;;;;;;;;21.80;99.90;;;;;;8363349;28;19921;-74
2022/07/03 16:47:46;;;;;;;;;;;21.50;99.90;;;;;;8360140;28;19931;-75
2022/07/03 16:51:49;;;;;;;;;;;21.70;99.90;;;;;;8378087;28;19947;-74
2022/07/03 16:55:51;;;;;;;;;;;22.20;99.90;;;;;;8368536;28;19920;-75
2022/07/03 16:59:53;;;;;;;;;;;22.80;99.90;;;;;;8359466;28;19924;-75
2022/07/03 17:03:55;;;;;;;;;;;23.00;99.90;;;;;;8361060;28;19921;-75
2022/07/03 17:07:58;;;;;;;;;;;23.20;99.90;;;;;;8358908;28;20006;-75
2022/07/03 17:12:01;;;;;;;;;;;23.50;99.90;;;;;;8351412;28;20561;-75
2022/07/03 17:16:04;;;;;;;;;;;23.50;99.90;;;;;;8354097;28;19929;-75
2022/07/03 17:20:12;;;;;;;;;;;23.40;99.90;;;;;;8364109;28;19928;-74
2022/07/03 17:24:18;;;;;;;;;;;23.50;99.90;;;;;;8359213;28;19924;-75
2022/07/03 17:28:21;;;;;;;;;;;23.50;99.90;;;;;;8367419;28;19936;-75
2022/07/03 17:32:23;;;;;;;;;;;23.20;99.90;;;;;;8355311;28;19931;-75
2022/07/03 17:36:25;;;;;;;;;;;22.90;99.90;;;;;;8351013;28;19924;-75
2022/07/03 17:40:27;;;;;;;;;;;22.50;99.90;;;;;;8342951;28;19924;-76
2022/07/03 17:44:29;;;;;;;;;;;22.30;99.90;;;;;;8350847;28;19921;-75
2022/07/03 17:48:31;;;;;;;;;;;22.20;99.90;;;;;;8356162;28;20292;-75
2022/07/03 17:52:34;;;;;;;;;;;22.10;99.90;;;;;;8354044;28;19924;-75
2022/07/03 17:56:36;;;;;;;;;;;21.90;99.90;;;;;;8355444;28;19925;-75
2022/07/03 18:00:38;;;;;;;;;;;21.70;99.90;;;;;;8361417;28;20386;-75
2022/07/03 18:04:40;;;;;;;;;;;21.70;99.90;;;;;;8365871;28;19931;-75
2022/07/03 18:08:46;;;;;;;;;;;21.50;99.90;;;;;;8358337;28;20269;-75
2022/07/03 18:12:59;;;;;;;;;;;21.30;99.90;;;;;;8349516;28;20290;-76
2022/07/03 18:17:01;;;;;;;;;;;21.20;99.90;;;;;;8353630;28;19925;-76
2022/07/03 18:21:04;;;;;;;;;;;21.10;99.90;;;;;;8347868;28;19924;-75
2022/07/03 18:25:06;;;;;;;;;;;21.00;99.90;;;;;;8360988;28;20539;-74
2022/07/03 18:29:09;;;;;;;;;;;20.80;99.90;;;;;;8350641;28;19924;-75
2022/07/03 18:33:11;;;;;;;;;;;20.70;99.90;;;;;;8355650;28;20390;-75
2022/07/03 18:37:13;;;;;;;;;;;20.60;99.90;;;;;;8350074;28;19923;-75
2022/07/03 18:41:16;;;;;;;;;;;20.50;99.90;;;;;;8350001;28;19929;-73
2022/07/03 18:45:18;;;;;;;;;;;20.40;99.90;;;;;;8357960;28;19936;-75
2022/07/03 18:49:19;;;;;;;;;;;20.30;99.90;;;;;;8351636;28;19928;-76
2022/07/03 18:53:28;;;;;;;;;;;20.20;99.90;;;;;;8364606;28;19925;-76
2022/07/03 18:57:35;;;;;;;;;;;20.20;99.90;;;;;;8348697;28;19920;-75
2022/07/03 19:01:41;;;;;;;;;;;20.20;99.90;;;;;;8357117;28;20015;-75
2022/07/03 19:05:42;;;;;;;;;;;20.30;99.90;;;;;;8352956;28;19929;-75
2022/07/03 19:10:04;;;;;;;;;;;20.30;99.90;;;;;;8354757;28;19935;-75
2022/07/03 19:14:12;;;;;;;;;;;20.20;99.90;;;;;;8331442;28;19935;-74
2022/07/03 19:18:14;;;;;;;;;;;20.10;99.90;;;;;;8353551;28;19959;-75
2022/07/03 19:22:15;;;;;;;;;;;20.00;99.90;;;;;;8348176;28;20433;-75
2022/07/03 19:26:17;;;;;;;;;;;19.90;99.90;;;;;;8347623;28;20038;-75
2022/07/03 19:30:19;;;;;;;;;;;19.80;99.90;;;;;;8349493;28;19921;-76
2022/07/03 19:34:21;;;;;;;;;;;19.80;99.90;;;;;;8356022;28;19927;-75
2022/07/03 19:38:23;;;;;;;;;;;19.80;99.90;;;;;;8359446;28;20351;-75
2022/07/03 19:42:24;;;;;;;;;;;19.70;99.90;;;;;;8341681;28;19936;-75
2022/07/03 19:46:27;;;;;;;;;;;19.70;99.90;;;;;;8352162;28;19952;-75
2022/07/03 19:50:29;;;;;;;;;;;19.60;99.90;;;;;;8358212;28;19921;-75
2022/07/03 19:54:30;;;;;;;;;;;19.60;99.90;;;;;;8366168;28;20550;-75
2022/07/03 19:58:32;;;;;;;;;;;19.50;99.90;;;;;;8355853;28;19928;-76
2022/07/03 20:02:34;;;;;;;;;;;19.50;99.90;;;;;;8362205;28;20421;-75
2022/07/03 20:06:35;;;;;;;;;;;19.40;99.90;;;;;;8373666;28;20018;-75
2022/07/03 20:10:37;;;;;;;;;;;19.40;99.90;;;;;;8358694;28;19939;-76
2022/07/03 20:14:41;;;;;;;;;;;19.40;99.90;;;;;;8356182;28;19924;-75
2022/07/03 20:18:42;;;;;;;;;;;19.40;99.90;;;;;;8364873;28;19920;-75
2022/07/03 20:22:44;;;;;;;;;;;19.30;99.90;;;;;;8360896;28;20291;-76
2022/07/03 20:26:52;;;;;;;;;;;19.30;99.90;;;;;;8349536;28;20552;-75
2022/07/03 20:30:53;;;;;;;;;;;19.20;99.90;;;;;;8356685;28;19929;-76
2022/07/03 20:34:55;;;;;;;;;;;19.20;99.90;;;;;;8333411;28;20246;-76
2022/07/03 20:38:57;;;;;;;;;;;19.10;99.90;;;;;;8356137;28;19930;-75
2022/07/03 20:43:18;;;;;;;;;;;19.00;99.90;;;;;;8350224;28;20490;-76
2022/07/03 21:02:24;;;;;;;;;;;18.70;99.90;;;;;;8359132;28;19938;-75
2022/07/03 21:06:28;;;;;;;;;;;18.60;99.90;;;;;;8373304;28;19921;-76
2022/07/03 21:14:50;;;;;;;;;;;18.40;99.90;;;;;;8374046;28;20303;-75
2022/07/03 21:18:51;;;;;;;;;;;18.30;99.90;;;;;;8350960;28;19936;-75
2022/07/03 21:22:53;;;;;;;;;;;18.20;99.90;;;;;;8359833;28;19928;-76
2022/07/03 21:26:54;;;;;;;;;;;18.10;99.90;;;;;;8375611;28;19929;-75
2022/07/03 21:30:56;;;;;;;;;;;18.10;99.90;;;;;;8374215;28;20291;-75
2022/07/03 21:34:58;;;;;;;;;;;18.00;99.90;;;;;;8367178;28;19939;-76
2022/07/03 21:38:59;;;;;;;;;;;17.90;99.90;;;;;;8372135;28;20027;-76
2022/07/03 21:43:01;;;;;;;;;;;17.90;99.90;;;;;;8371955;28;19967;-75
2022/07/03 21:47:03;;;;;;;;;;;17.80;99.90;;;;;;8374998;28;19928;-75
2022/07/03 21:51:05;;;;;;;;;;;17.70;99.90;;;;;;8376839;28;19920;-76
2022/07/03 21:55:07;;;;;;;;;;;17.70;99.90;;;;;;8375887;28;19964;-75
2022/07/03 21:59:09;;;;;;;;;;;17.60;99.90;;;;;;8374453;28;19924;-76
2022/07/03 22:03:11;;;;;;;;;;;17.50;99.90;;;;;;8366465;28;19927;-75
2022/07/03 22:07:13;;;;;;;;;;;17.50;99.90;;;;;;8378964;28;19920;-76
2022/07/03 22:11:15;;;;;;;;;;;17.40;99.90;;;;;;8355524;28;19925;-75
2022/07/03 22:15:17;;;;;;;;;;;17.40;99.90;;;;;;8378565;28;19950;-75
2022/07/03 22:19:18;;;;;;;;;;;17.30;99.90;;;;;;8370901;28;19986;-75
2022/07/03 22:23:20;;;;;;;;;;;17.30;99.90;;;;;;8368813;28;19935;-75
2022/07/03 22:27:22;;;;;;;;;;;17.20;99.90;;;;;;8366238;28;19936;-75
2022/07/03 22:36:04;;;;;;;;;;;17.10;99.90;;;;;;8359359;28;20003;-75
2022/07/03 22:40:07;;;;;;;;;;;17.00;99.90;;;;;;8365219;28;19920;-75
2022/07/03 22:44:09;;;;;;;;;;;16.90;99.90;;;;;;8367829;28;20165;-75
2022/07/03 22:48:10;;;;;;;;;;;16.90;99.90;;;;;;8368483;28;19927;-75
2022/07/03 22:52:12;;;;;;;;;;;16.90;99.90;;;;;;8375300;28;19943;-75
2022/07/03 22:56:13;;;;;;;;;;;16.80;99.90;;;;;;8374496;28;20229;-75
2022/07/03 23:00:16;;;;;;;;;;;16.80;99.90;;;;;;8358717;28;20276;-75
2022/07/03 23:04:18;;;;;;;;;;;16.70;99.90;;;;;;8352755;28;19928;-76
2022/07/03 23:08:20;;;;;;;;;;;16.70;99.90;;;;;;8396680;28;20375;-75
2022/07/03 23:12:21;;;;;;;;;;;16.60;99.90;;;;;;8370993;28;19924;-75
2022/07/03 23:16:23;;;;;;;;;;;16.60;99.90;;;;;;8373649;28;19929;-76
2022/07/03 23:20:25;;;;;;;;;;;16.60;99.90;;;;;;8378519;28;19927;-75
2022/07/03 23:24:26;;;;;;;;;;;16.50;99.90;;;;;;8372150;28;19927;-75
2022/07/03 23:28:28;;;;;;;;;;;16.50;99.90;;;;;;8374238;28;19944;-75
2022/07/03 23:32:30;;;;;;;;;;;16.40;99.90;;;;;;8373595;28;20256;-75
2022/07/03 23:36:31;;;;;;;;;;;16.40;99.90;;;;;;8392020;28;19942;-75
2022/07/03 23:40:33;;;;;;;;;;;16.40;99.90;;;;;;8386150;28;20208;-75
2022/07/03 23:44:34;;;;;;;;;;;16.30;99.90;;;;;;8374750;28;19971;-75
2022/07/03 23:52:56;;;;;;;;;;;16.20;99.90;;;;;;8385621;28;20287;-75
2022/07/03 23:56:58;;;;;;;;;;;16.10;99.90;;;;;;8363086;28;19924;-75
